<?xml version="1.0" encoding="UTF-8" standalone="no" ?>
<gpx xmlns="http://www.topografix.com/GPX/1/1" xmlns:xsi="http://www.w3.org/2001/XMLSchema-instance" xsi:schemaLocation="http://www.topografix.com/GPX/1/1 http://www.topografix.com/GPX/1/1/gpx.xsd" version="1.1" creator="VisuGPX - https://www.visugpx.com">
  <metadata>
    <name>luzech 6 descentes</name>
    <desc><![CDATA[parcours typé enduro avec de belles descentes]]></desc>
  </metadata>
  <trk>
    <name><![CDATA[2014-04-01-08-18-57]]></name>
    <trkseg>
      <trkpt lat="44.44993" lon="1.30008">
        <ele>125.775</ele>
        <time>2014-04-01T09:49:52Z</time>
      </trkpt>
      <trkpt lat="44.44978" lon="1.29999">
        <ele>122.193</ele>
        <time>2014-04-01T09:49:57Z</time>
      </trkpt>
      <trkpt lat="44.44969" lon="1.29987">
        <ele>121.104</ele>
        <time>2014-04-01T09:50:00Z</time>
      </trkpt>
      <trkpt lat="44.44967" lon="1.29983">
        <ele>120.944</ele>
        <time>2014-04-01T09:50:01Z</time>
      </trkpt>
      <trkpt lat="44.44954" lon="1.29954">
        <ele>121.457</ele>
        <time>2014-04-01T09:50:09Z</time>
      </trkpt>
      <trkpt lat="44.44948" lon="1.2994">
        <ele>122.547</ele>
        <time>2014-04-01T09:50:14Z</time>
      </trkpt>
      <trkpt lat="44.4494" lon="1.29923">
        <ele>124.367</ele>
        <time>2014-04-01T09:50:19Z</time>
      </trkpt>
      <trkpt lat="44.44932" lon="1.29903">
        <ele>128.028</ele>
        <time>2014-04-01T09:50:24Z</time>
      </trkpt>
      <trkpt lat="44.44927" lon="1.29889">
        <ele>129.757</ele>
        <time>2014-04-01T09:50:28Z</time>
      </trkpt>
      <trkpt lat="44.44915" lon="1.29869">
        <ele>131.326</ele>
        <time>2014-04-01T09:50:34Z</time>
      </trkpt>
      <trkpt lat="44.44897" lon="1.29846">
        <ele>131.406</ele>
        <time>2014-04-01T09:50:40Z</time>
      </trkpt>
      <trkpt lat="44.44886" lon="1.29837">
        <ele>130.345</ele>
        <time>2014-04-01T09:50:43Z</time>
      </trkpt>
      <trkpt lat="44.44878" lon="1.29831">
        <ele>129.465</ele>
        <time>2014-04-01T09:50:45Z</time>
      </trkpt>
      <trkpt lat="44.44863" lon="1.29817">
        <ele>129.065</ele>
        <time>2014-04-01T09:50:49Z</time>
      </trkpt>
      <trkpt lat="44.44853" lon="1.29809">
        <ele>129.365</ele>
        <time>2014-04-01T09:50:52Z</time>
      </trkpt>
      <trkpt lat="44.44835" lon="1.29806">
        <ele>128.855</ele>
        <time>2014-04-01T09:50:57Z</time>
      </trkpt>
      <trkpt lat="44.4482" lon="1.29806">
        <ele>128.404</ele>
        <time>2014-04-01T09:51:01Z</time>
      </trkpt>
      <trkpt lat="44.44807" lon="1.29809">
        <ele>127.354</ele>
        <time>2014-04-01T09:51:04Z</time>
      </trkpt>
      <trkpt lat="44.44781" lon="1.29822">
        <ele>126.185</ele>
        <time>2014-04-01T09:51:11Z</time>
      </trkpt>
      <trkpt lat="44.4478" lon="1.29823">
        <ele>126.646</ele>
        <time>2014-04-01T09:51:12Z</time>
      </trkpt>
      <trkpt lat="44.44772" lon="1.2982">
        <ele>126.446</ele>
        <time>2014-04-01T09:51:16Z</time>
      </trkpt>
      <trkpt lat="44.44752" lon="1.29802">
        <ele>126.485</ele>
        <time>2014-04-01T09:51:25Z</time>
      </trkpt>
      <trkpt lat="44.44732" lon="1.29786">
        <ele>127.025</ele>
        <time>2014-04-01T09:51:32Z</time>
      </trkpt>
      <trkpt lat="44.4471" lon="1.29767">
        <ele>127.785</ele>
        <time>2014-04-01T09:51:39Z</time>
      </trkpt>
      <trkpt lat="44.44686" lon="1.29745">
        <ele>128.585</ele>
        <time>2014-04-01T09:51:47Z</time>
      </trkpt>
      <trkpt lat="44.44661" lon="1.29723">
        <ele>129.095</ele>
        <time>2014-04-01T09:51:55Z</time>
      </trkpt>
      <trkpt lat="44.44632" lon="1.29699">
        <ele>130.027</ele>
        <time>2014-04-01T09:52:04Z</time>
      </trkpt>
      <trkpt lat="44.44593" lon="1.29662">
        <ele>131.595</ele>
        <time>2014-04-01T09:52:17Z</time>
      </trkpt>
      <trkpt lat="44.44566" lon="1.29627">
        <ele>131.203</ele>
        <time>2014-04-01T09:52:27Z</time>
      </trkpt>
      <trkpt lat="44.44552" lon="1.29605">
        <ele>131.513</ele>
        <time>2014-04-01T09:52:32Z</time>
      </trkpt>
      <trkpt lat="44.4453" lon="1.29567">
        <ele>129.812</ele>
        <time>2014-04-01T09:52:40Z</time>
      </trkpt>
      <trkpt lat="44.44519" lon="1.29533">
        <ele>129.192</ele>
        <time>2014-04-01T09:52:46Z</time>
      </trkpt>
      <trkpt lat="44.44516" lon="1.29515">
        <ele>129.142</ele>
        <time>2014-04-01T09:52:49Z</time>
      </trkpt>
      <trkpt lat="44.44519" lon="1.29473">
        <ele>128.593</ele>
        <time>2014-04-01T09:52:56Z</time>
      </trkpt>
      <trkpt lat="44.44523" lon="1.29437">
        <ele>129.323</ele>
        <time>2014-04-01T09:53:02Z</time>
      </trkpt>
      <trkpt lat="44.44518" lon="1.29402">
        <ele>128.852</ele>
        <time>2014-04-01T09:53:08Z</time>
      </trkpt>
      <trkpt lat="44.44498" lon="1.29343">
        <ele>129.963</ele>
        <time>2014-04-01T09:53:19Z</time>
      </trkpt>
      <trkpt lat="44.44478" lon="1.2929">
        <ele>133.013</ele>
        <time>2014-04-01T09:53:29Z</time>
      </trkpt>
      <trkpt lat="44.4446" lon="1.29252">
        <ele>135.183</ele>
        <time>2014-04-01T09:53:37Z</time>
      </trkpt>
      <trkpt lat="44.44445" lon="1.29226">
        <ele>137.353</ele>
        <time>2014-04-01T09:53:43Z</time>
      </trkpt>
      <trkpt lat="44.44428" lon="1.29191">
        <ele>138.523</ele>
        <time>2014-04-01T09:53:51Z</time>
      </trkpt>
      <trkpt lat="44.44417" lon="1.29163">
        <ele>139.673</ele>
        <time>2014-04-01T09:53:57Z</time>
      </trkpt>
      <trkpt lat="44.44409" lon="1.29138">
        <ele>139.872</ele>
        <time>2014-04-01T09:54:02Z</time>
      </trkpt>
      <trkpt lat="44.44399" lon="1.29099">
        <ele>139.651</ele>
        <time>2014-04-01T09:54:10Z</time>
      </trkpt>
      <trkpt lat="44.44392" lon="1.29073">
        <ele>139.572</ele>
        <time>2014-04-01T09:54:16Z</time>
      </trkpt>
      <trkpt lat="44.44384" lon="1.29045">
        <ele>142.122</ele>
        <time>2014-04-01T09:54:23Z</time>
      </trkpt>
      <trkpt lat="44.44378" lon="1.29047">
        <ele>142.962</ele>
        <time>2014-04-01T09:54:27Z</time>
      </trkpt>
      <trkpt lat="44.44371" lon="1.29047">
        <ele>143.071</ele>
        <time>2014-04-01T09:54:30Z</time>
      </trkpt>
      <trkpt lat="44.44365" lon="1.29045">
        <ele>143.482</ele>
        <time>2014-04-01T09:54:32Z</time>
      </trkpt>
      <trkpt lat="44.44341" lon="1.29048">
        <ele>142.281</ele>
        <time>2014-04-01T09:54:39Z</time>
      </trkpt>
      <trkpt lat="44.44337" lon="1.29049">
        <ele>141.86</ele>
        <time>2014-04-01T09:54:40Z</time>
      </trkpt>
      <trkpt lat="44.44324" lon="1.29047">
        <ele>141.471</ele>
        <time>2014-04-01T09:54:43Z</time>
      </trkpt>
      <trkpt lat="44.44314" lon="1.29045">
        <ele>140.871</ele>
        <time>2014-04-01T09:54:45Z</time>
      </trkpt>
      <trkpt lat="44.44299" lon="1.29041">
        <ele>139.43</ele>
        <time>2014-04-01T09:54:48Z</time>
      </trkpt>
      <trkpt lat="44.44269" lon="1.29027">
        <ele>136.17</ele>
        <time>2014-04-01T09:54:55Z</time>
      </trkpt>
      <trkpt lat="44.44254" lon="1.29028">
        <ele>135.79</ele>
        <time>2014-04-01T09:54:59Z</time>
      </trkpt>
      <trkpt lat="44.44235" lon="1.29037">
        <ele>136.291</ele>
        <time>2014-04-01T09:55:04Z</time>
      </trkpt>
      <trkpt lat="44.44224" lon="1.29046">
        <ele>136.092</ele>
        <time>2014-04-01T09:55:08Z</time>
      </trkpt>
      <trkpt lat="44.44206" lon="1.29055">
        <ele>136.012</ele>
        <time>2014-04-01T09:55:14Z</time>
      </trkpt>
      <trkpt lat="44.44197" lon="1.29062">
        <ele>134.821</ele>
        <time>2014-04-01T09:55:18Z</time>
      </trkpt>
      <trkpt lat="44.44188" lon="1.29071">
        <ele>136.043</ele>
        <time>2014-04-01T09:55:22Z</time>
      </trkpt>
      <trkpt lat="44.44178" lon="1.2908">
        <ele>136.932</ele>
        <time>2014-04-01T09:55:26Z</time>
      </trkpt>
      <trkpt lat="44.44162" lon="1.29085">
        <ele>136.932</ele>
        <time>2014-04-01T09:55:31Z</time>
      </trkpt>
      <trkpt lat="44.44148" lon="1.29085">
        <ele>138.242</ele>
        <time>2014-04-01T09:55:36Z</time>
      </trkpt>
      <trkpt lat="44.44135" lon="1.29096">
        <ele>139.092</ele>
        <time>2014-04-01T09:55:42Z</time>
      </trkpt>
      <trkpt lat="44.44121" lon="1.29107">
        <ele>139.061</ele>
        <time>2014-04-01T09:55:49Z</time>
      </trkpt>
      <trkpt lat="44.44108" lon="1.29108">
        <ele>137.871</ele>
        <time>2014-04-01T09:55:54Z</time>
      </trkpt>
      <trkpt lat="44.44089" lon="1.29102">
        <ele>136.991</ele>
        <time>2014-04-01T09:56:02Z</time>
      </trkpt>
      <trkpt lat="44.44075" lon="1.29098">
        <ele>137.611</ele>
        <time>2014-04-01T09:56:08Z</time>
      </trkpt>
      <trkpt lat="44.44056" lon="1.291">
        <ele>137.761</ele>
        <time>2014-04-01T09:56:15Z</time>
      </trkpt>
      <trkpt lat="44.44043" lon="1.291">
        <ele>138.802</ele>
        <time>2014-04-01T09:56:21Z</time>
      </trkpt>
      <trkpt lat="44.44028" lon="1.29101">
        <ele>138.93</ele>
        <time>2014-04-01T09:56:27Z</time>
      </trkpt>
      <trkpt lat="44.44005" lon="1.29101">
        <ele>140.141</ele>
        <time>2014-04-01T09:56:36Z</time>
      </trkpt>
      <trkpt lat="44.43991" lon="1.29103">
        <ele>141.801</ele>
        <time>2014-04-01T09:56:42Z</time>
      </trkpt>
      <trkpt lat="44.43979" lon="1.29108">
        <ele>142.491</ele>
        <time>2014-04-01T09:56:47Z</time>
      </trkpt>
      <trkpt lat="44.43965" lon="1.29113">
        <ele>144.621</ele>
        <time>2014-04-01T09:56:53Z</time>
      </trkpt>
      <trkpt lat="44.43951" lon="1.2912">
        <ele>146.942</ele>
        <time>2014-04-01T09:57:00Z</time>
      </trkpt>
      <trkpt lat="44.43936" lon="1.29127">
        <ele>145.689</ele>
        <time>2014-04-01T09:57:06Z</time>
      </trkpt>
      <trkpt lat="44.43929" lon="1.2913">
        <ele>145.199</ele>
        <time>2014-04-01T09:57:08Z</time>
      </trkpt>
      <trkpt lat="44.43905" lon="1.29156">
        <ele>145.59</ele>
        <time>2014-04-01T09:57:15Z</time>
      </trkpt>
      <trkpt lat="44.43899" lon="1.29165">
        <ele>145.5</ele>
        <time>2014-04-01T09:57:17Z</time>
      </trkpt>
      <trkpt lat="44.4389" lon="1.29193">
        <ele>147.731</ele>
        <time>2014-04-01T09:57:22Z</time>
      </trkpt>
      <trkpt lat="44.43882" lon="1.29209">
        <ele>148.12</ele>
        <time>2014-04-01T09:57:27Z</time>
      </trkpt>
      <trkpt lat="44.43881" lon="1.2921">
        <ele>148.432</ele>
        <time>2014-04-01T09:57:29Z</time>
      </trkpt>
    </trkseg>
  </trk>
</gpx>